sensor_id;sensor_type;location;lat;lon;timestamp;P1;durP1;ratioP1;P2;durP2;ratioP2
71413;SDS011;59226;53.212;5.728;2023-08-12T00:00:20;6.03;;;1.23;;
71413;SDS011;59226;53.212;5.728;2023-08-12T00:02:46;2.83;;;1.00;;
71413;SDS011;59226;53.212;5.728;2023-08-12T00:05:11;3.27;;;1.30;;
71413;SDS011;59226;53.212;5.728;2023-08-12T00:07:37;5.83;;;1.10;;
71413;SDS011;59226;53.212;5.728;2023-08-12T00:10:02;2.92;;;1.00;;
71413;SDS011;59226;53.212;5.728;2023-08-12T00:12:29;2.20;;;1.03;;
71413;SDS011;59226;53.212;5.728;2023-08-12T00:14:55;3.05;;;1.27;;
71413;SDS011;59226;53.212;5.728;2023-08-12T00:17:20;3.40;;;1.30;;
71413;SDS011;59226;53.212;5.728;2023-08-12T00:19:45;2.13;;;0.80;;
71413;SDS011;59226;53.212;5.728;2023-08-12T00:22:10;2.93;;;1.07;;
71413;SDS011;59226;53.212;5.728;2023-08-12T00:24:36;2.77;;;1.00;;
71413;SDS011;59226;53.212;5.728;2023-08-12T00:27:01;2.90;;;1.20;;
71413;SDS011;59226;53.212;5.728;2023-08-12T00:29:26;3.80;;;1.00;;
71413;SDS011;59226;53.212;5.728;2023-08-12T00:31:51;2.80;;;0.90;;
71413;SDS011;59226;53.212;5.728;2023-08-12T00:34:17;4.33;;;1.27;;
71413;SDS011;59226;53.212;5.728;2023-08-12T00:36:42;2.87;;;1.07;;
71413;SDS011;59226;53.212;5.728;2023-08-12T00:39:07;3.87;;;1.90;;
71413;SDS011;59226;53.212;5.728;2023-08-12T00:41:32;4.17;;;1.30;;
71413;SDS011;59226;53.212;5.728;2023-08-12T00:43:58;5.20;;;0.90;;
71413;SDS011;59226;53.212;5.728;2023-08-12T00:46:23;1.30;;;0.70;;
71413;SDS011;59226;53.212;5.728;2023-08-12T00:48:49;1.75;;;0.80;;
71413;SDS011;59226;53.212;5.728;2023-08-12T00:51:15;1.93;;;0.90;;
71413;SDS011;59226;53.212;5.728;2023-08-12T00:53:41;5.32;;;1.45;;
71413;SDS011;59226;53.212;5.728;2023-08-12T00:56:06;3.60;;;1.10;;
71413;SDS011;59226;53.212;5.728;2023-08-12T00:58:32;1.92;;;0.88;;
71413;SDS011;59226;53.212;5.728;2023-08-12T01:00:57;2.10;;;0.93;;
71413;SDS011;59226;53.212;5.728;2023-08-12T01:03:22;1.10;;;0.40;;
71413;SDS011;59226;53.212;5.728;2023-08-12T01:05:48;2.05;;;0.85;;
71413;SDS011;59226;53.212;5.728;2023-08-12T01:08:13;4.17;;;1.33;;
71413;SDS011;59226;53.212;5.728;2023-08-12T01:10:39;1.97;;;0.87;;
71413;SDS011;59226;53.212;5.728;2023-08-12T01:15:32;3.30;;;1.00;;
71413;SDS011;59226;53.212;5.728;2023-08-12T01:17:58;1.67;;;0.80;;
71413;SDS011;59226;53.212;5.728;2023-08-12T01:20:25;2.03;;;0.77;;
71413;SDS011;59226;53.212;5.728;2023-08-12T01:22:58;2.28;;;1.00;;
71413;SDS011;59226;53.212;5.728;2023-08-12T01:25:26;4.78;;;1.25;;
71413;SDS011;59226;53.212;5.728;2023-08-12T01:27:51;2.40;;;0.93;;
71413;SDS011;59226;53.212;5.728;2023-08-12T01:30:17;3.17;;;1.00;;
71413;SDS011;59226;53.212;5.728;2023-08-12T01:35:30;1.90;;;0.83;;
71413;SDS011;59226;53.212;5.728;2023-08-12T01:37:54;3.67;;;0.90;;
71413;SDS011;59226;53.212;5.728;2023-08-12T01:40:21;2.80;;;1.20;;
71413;SDS011;59226;53.212;5.728;2023-08-12T01:42:46;4.63;;;1.60;;
71413;SDS011;59226;53.212;5.728;2023-08-12T01:45:12;2.75;;;0.70;;
71413;SDS011;59226;53.212;5.728;2023-08-12T01:47:38;3.13;;;1.10;;
71413;SDS011;59226;53.212;5.728;2023-08-12T01:50:03;4.27;;;1.17;;
71413;SDS011;59226;53.212;5.728;2023-08-12T01:52:29;3.50;;;1.40;;
71413;SDS011;59226;53.212;5.728;2023-08-12T01:54:54;2.33;;;0.90;;
71413;SDS011;59226;53.212;5.728;2023-08-12T01:57:19;5.10;;;1.57;;
71413;SDS011;59226;53.212;5.728;2023-08-12T01:59:45;2.90;;;1.03;;
71413;SDS011;59226;53.212;5.728;2023-08-12T02:02:10;3.47;;;1.50;;
71413;SDS011;59226;53.212;5.728;2023-08-12T02:04:35;3.80;;;1.83;;
71413;SDS011;59226;53.212;5.728;2023-08-12T02:07:02;8.55;;;1.50;;
71413;SDS011;59226;53.212;5.728;2023-08-12T02:09:27;2.50;;;1.20;;
71413;SDS011;59226;53.212;5.728;2023-08-12T02:11:53;2.10;;;1.10;;
71413;SDS011;59226;53.212;5.728;2023-08-12T02:14:18;3.33;;;1.53;;
71413;SDS011;59226;53.212;5.728;2023-08-12T02:16:43;3.77;;;1.43;;
71413;SDS011;59226;53.212;5.728;2023-08-12T02:19:08;4.30;;;1.33;;
71413;SDS011;59226;53.212;5.728;2023-08-12T02:21:33;3.17;;;1.17;;
71413;SDS011;59226;53.212;5.728;2023-08-12T02:23:59;3.10;;;1.43;;
71413;SDS011;59226;53.212;5.728;2023-08-12T02:26:24;3.27;;;1.20;;
71413;SDS011;59226;53.212;5.728;2023-08-12T02:28:49;3.20;;;1.63;;
71413;SDS011;59226;53.212;5.728;2023-08-12T02:31:15;2.37;;;1.23;;
71413;SDS011;59226;53.212;5.728;2023-08-12T02:33:40;3.33;;;1.63;;
71413;SDS011;59226;53.212;5.728;2023-08-12T02:36:05;8.60;;;1.67;;
71413;SDS011;59226;53.212;5.728;2023-08-12T02:38:31;7.47;;;1.53;;
71413;SDS011;59226;53.212;5.728;2023-08-12T02:40:56;4.27;;;1.40;;
71413;SDS011;59226;53.212;5.728;2023-08-12T02:43:21;4.70;;;1.30;;
71413;SDS011;59226;53.212;5.728;2023-08-12T02:45:46;4.17;;;1.43;;
71413;SDS011;59226;53.212;5.728;2023-08-12T02:48:12;3.07;;;1.23;;
71413;SDS011;59226;53.212;5.728;2023-08-12T02:50:37;3.87;;;1.23;;
71413;SDS011;59226;53.212;5.728;2023-08-12T02:53:03;3.65;;;1.40;;
71413;SDS011;59226;53.212;5.728;2023-08-12T02:55:28;2.17;;;0.87;;
71413;SDS011;59226;53.212;5.728;2023-08-12T02:57:54;4.67;;;1.67;;
71413;SDS011;59226;53.212;5.728;2023-08-12T03:00:19;4.35;;;1.27;;
71413;SDS011;59226;53.212;5.728;2023-08-12T03:02:44;4.40;;;1.30;;
71413;SDS011;59226;53.212;5.728;2023-08-12T03:05:09;2.33;;;1.00;;
71413;SDS011;59226;53.212;5.728;2023-08-12T03:07:35;2.40;;;1.07;;
71413;SDS011;59226;53.212;5.728;2023-08-12T03:10:00;3.90;;;1.23;;
71413;SDS011;59226;53.212;5.728;2023-08-12T03:12:25;2.90;;;1.20;;
71413;SDS011;59226;53.212;5.728;2023-08-12T03:14:50;4.83;;;1.57;;
71413;SDS011;59226;53.212;5.728;2023-08-12T03:17:16;8.07;;;1.70;;
71413;SDS011;59226;53.212;5.728;2023-08-12T03:19:41;4.27;;;1.63;;
71413;SDS011;59226;53.212;5.728;2023-08-12T03:22:07;7.13;;;1.30;;
71413;SDS011;59226;53.212;5.728;2023-08-12T03:24:33;3.50;;;1.47;;
71413;SDS011;59226;53.212;5.728;2023-08-12T03:26:58;3.33;;;1.43;;
71413;SDS011;59226;53.212;5.728;2023-08-12T03:29:23;5.47;;;1.43;;
71413;SDS011;59226;53.212;5.728;2023-08-12T03:31:49;5.57;;;1.87;;
71413;SDS011;59226;53.212;5.728;2023-08-12T03:34:14;2.80;;;1.37;;
71413;SDS011;59226;53.212;5.728;2023-08-12T03:36:39;2.87;;;1.23;;
71413;SDS011;59226;53.212;5.728;2023-08-12T03:39:04;4.83;;;1.93;;
71413;SDS011;59226;53.212;5.728;2023-08-12T03:41:30;2.83;;;1.03;;
71413;SDS011;59226;53.212;5.728;2023-08-12T03:43:55;2.90;;;1.27;;
71413;SDS011;59226;53.212;5.728;2023-08-12T03:46:21;2.97;;;1.20;;
71413;SDS011;59226;53.212;5.728;2023-08-12T03:48:46;4.07;;;1.10;;
71413;SDS011;59226;53.212;5.728;2023-08-12T03:51:11;5.13;;;1.30;;
71413;SDS011;59226;53.212;5.728;2023-08-12T03:53:36;2.63;;;1.40;;
71413;SDS011;59226;53.212;5.728;2023-08-12T03:56:01;5.17;;;1.40;;
71413;SDS011;59226;53.212;5.728;2023-08-12T03:58:27;3.13;;;1.37;;
71413;SDS011;59226;53.212;5.728;2023-08-12T04:00:52;7.00;;;1.53;;
71413;SDS011;59226;53.212;5.728;2023-08-12T04:03:17;5.67;;;1.83;;
71413;SDS011;59226;53.212;5.728;2023-08-12T04:05:51;10.23;;;1.47;;
71413;SDS011;59226;53.212;5.728;2023-08-12T04:08:26;5.68;;;1.17;;
71413;SDS011;59226;53.212;5.728;2023-08-12T04:10:51;4.30;;;1.33;;
71413;SDS011;59226;53.212;5.728;2023-08-12T04:13:17;3.10;;;1.30;;
71413;SDS011;59226;53.212;5.728;2023-08-12T04:15:42;7.35;;;1.75;;
71413;SDS011;59226;53.212;5.728;2023-08-12T04:18:08;3.20;;;1.57;;
71413;SDS011;59226;53.212;5.728;2023-08-12T04:20:33;7.03;;;1.90;;
71413;SDS011;59226;53.212;5.728;2023-08-12T04:22:59;5.37;;;1.57;;
71413;SDS011;59226;53.212;5.728;2023-08-12T04:25:25;3.70;;;2.03;;
71413;SDS011;59226;53.212;5.728;2023-08-12T04:27:50;6.57;;;2.42;;
71413;SDS011;59226;53.212;5.728;2023-08-12T04:30:16;7.67;;;1.97;;
71413;SDS011;59226;53.212;5.728;2023-08-12T04:32:41;2.83;;;1.88;;
71413;SDS011;59226;53.212;5.728;2023-08-12T04:35:06;3.50;;;1.73;;
71413;SDS011;59226;53.212;5.728;2023-08-12T04:37:32;3.33;;;1.40;;
71413;SDS011;59226;53.212;5.728;2023-08-12T04:39:57;3.60;;;1.40;;
71413;SDS011;59226;53.212;5.728;2023-08-12T04:42:23;6.05;;;1.48;;
71413;SDS011;59226;53.212;5.728;2023-08-12T04:44:48;4.00;;;1.57;;
71413;SDS011;59226;53.212;5.728;2023-08-12T04:47:13;4.00;;;1.20;;
71413;SDS011;59226;53.212;5.728;2023-08-12T04:49:38;4.17;;;0.87;;
71413;SDS011;59226;53.212;5.728;2023-08-12T04:52:04;2.03;;;1.07;;
71413;SDS011;59226;53.212;5.728;2023-08-12T04:54:30;4.07;;;1.48;;
71413;SDS011;59226;53.212;5.728;2023-08-12T04:56:55;5.53;;;1.83;;
71413;SDS011;59226;53.212;5.728;2023-08-12T04:59:21;5.73;;;1.80;;
71413;SDS011;59226;53.212;5.728;2023-08-12T05:01:47;4.13;;;1.65;;
71413;SDS011;59226;53.212;5.728;2023-08-12T05:04:12;6.13;;;1.92;;
71413;SDS011;59226;53.212;5.728;2023-08-12T05:06:38;4.00;;;1.63;;
71413;SDS011;59226;53.212;5.728;2023-08-12T05:09:03;7.47;;;1.83;;
71413;SDS011;59226;53.212;5.728;2023-08-12T05:11:28;3.70;;;1.57;;
71413;SDS011;59226;53.212;5.728;2023-08-12T05:13:54;3.53;;;1.47;;
71413;SDS011;59226;53.212;5.728;2023-08-12T05:16:19;3.30;;;1.63;;
71413;SDS011;59226;53.212;5.728;2023-08-12T05:18:44;4.37;;;1.73;;
71413;SDS011;59226;53.212;5.728;2023-08-12T05:21:09;6.80;;;2.23;;
71413;SDS011;59226;53.212;5.728;2023-08-12T05:23:35;3.47;;;1.43;;
71413;SDS011;59226;53.212;5.728;2023-08-12T05:26:00;5.30;;;1.60;;
71413;SDS011;59226;53.212;5.728;2023-08-12T05:28:25;3.83;;;1.73;;
71413;SDS011;59226;53.212;5.728;2023-08-12T05:30:50;3.70;;;1.20;;
71413;SDS011;59226;53.212;5.728;2023-08-12T05:33:15;3.70;;;1.77;;
71413;SDS011;59226;53.212;5.728;2023-08-12T05:35:41;6.40;;;1.47;;
71413;SDS011;59226;53.212;5.728;2023-08-12T05:38:06;4.03;;;1.03;;
71413;SDS011;59226;53.212;5.728;2023-08-12T05:40:31;4.20;;;2.07;;
71413;SDS011;59226;53.212;5.728;2023-08-12T05:42:56;3.27;;;1.43;;
71413;SDS011;59226;53.212;5.728;2023-08-12T05:45:22;3.07;;;1.37;;
71413;SDS011;59226;53.212;5.728;2023-08-12T05:47:47;5.73;;;1.20;;
71413;SDS011;59226;53.212;5.728;2023-08-12T05:50:12;4.30;;;2.20;;
71413;SDS011;59226;53.212;5.728;2023-08-12T05:52:38;5.07;;;1.97;;
71413;SDS011;59226;53.212;5.728;2023-08-12T05:55:03;3.77;;;1.07;;
71413;SDS011;59226;53.212;5.728;2023-08-12T05:57:29;4.50;;;1.45;;
71413;SDS011;59226;53.212;5.728;2023-08-12T05:59:54;3.03;;;1.50;;
71413;SDS011;59226;53.212;5.728;2023-08-12T06:02:19;5.97;;;1.60;;
71413;SDS011;59226;53.212;5.728;2023-08-12T06:04:44;4.00;;;1.57;;
71413;SDS011;59226;53.212;5.728;2023-08-12T06:07:10;5.73;;;1.83;;
71413;SDS011;59226;53.212;5.728;2023-08-12T06:09:35;5.00;;;2.40;;
71413;SDS011;59226;53.212;5.728;2023-08-12T06:12:00;7.43;;;2.67;;
71413;SDS011;59226;53.212;5.728;2023-08-12T06:14:25;6.50;;;1.50;;
71413;SDS011;59226;53.212;5.728;2023-08-12T06:16:51;2.50;;;1.33;;
71413;SDS011;59226;53.212;5.728;2023-08-12T06:19:16;3.53;;;1.63;;
71413;SDS011;59226;53.212;5.728;2023-08-12T06:21:41;4.60;;;1.37;;
71413;SDS011;59226;53.212;5.728;2023-08-12T06:24:06;6.30;;;1.80;;
71413;SDS011;59226;53.212;5.728;2023-08-12T06:26:31;2.60;;;1.37;;
71413;SDS011;59226;53.212;5.728;2023-08-12T06:28:57;3.27;;;1.33;;
71413;SDS011;59226;53.212;5.728;2023-08-12T06:31:22;4.83;;;1.80;;
71413;SDS011;59226;53.212;5.728;2023-08-12T06:33:48;3.20;;;1.63;;
71413;SDS011;59226;53.212;5.728;2023-08-12T06:36:13;4.33;;;2.07;;
71413;SDS011;59226;53.212;5.728;2023-08-12T06:38:38;5.80;;;2.13;;
71413;SDS011;59226;53.212;5.728;2023-08-12T06:41:03;3.73;;;1.50;;
71413;SDS011;59226;53.212;5.728;2023-08-12T06:43:28;4.73;;;1.80;;
71413;SDS011;59226;53.212;5.728;2023-08-12T06:45:54;5.63;;;1.73;;
71413;SDS011;59226;53.212;5.728;2023-08-12T06:48:19;4.65;;;2.15;;
71413;SDS011;59226;53.212;5.728;2023-08-12T06:50:44;7.63;;;2.63;;
71413;SDS011;59226;53.212;5.728;2023-08-12T06:53:10;8.03;;;2.87;;
71413;SDS011;59226;53.212;5.728;2023-08-12T06:55:35;4.47;;;1.73;;
71413;SDS011;59226;53.212;5.728;2023-08-12T06:58:00;7.97;;;2.33;;
71413;SDS011;59226;53.212;5.728;2023-08-12T07:00:26;4.80;;;2.33;;
71413;SDS011;59226;53.212;5.728;2023-08-12T07:02:51;4.32;;;1.85;;
71413;SDS011;59226;53.212;5.728;2023-08-12T07:05:16;5.53;;;1.70;;
71413;SDS011;59226;53.212;5.728;2023-08-12T07:07:42;5.10;;;2.23;;
71413;SDS011;59226;53.212;5.728;2023-08-12T07:10:07;7.80;;;2.47;;
71413;SDS011;59226;53.212;5.728;2023-08-12T07:12:32;7.07;;;2.33;;
71413;SDS011;59226;53.212;5.728;2023-08-12T07:14:58;3.73;;;1.47;;
71413;SDS011;59226;53.212;5.728;2023-08-12T07:17:23;10.27;;;2.30;;
71413;SDS011;59226;53.212;5.728;2023-08-12T07:19:48;5.97;;;2.33;;
71413;SDS011;59226;53.212;5.728;2023-08-12T07:22:13;6.13;;;2.83;;
71413;SDS011;59226;53.212;5.728;2023-08-12T07:24:39;6.53;;;2.90;;
71413;SDS011;59226;53.212;5.728;2023-08-12T07:27:04;4.80;;;2.28;;
71413;SDS011;59226;53.212;5.728;2023-08-12T07:29:29;7.60;;;2.70;;
71413;SDS011;59226;53.212;5.728;2023-08-12T07:31:54;8.07;;;2.93;;
71413;SDS011;59226;53.212;5.728;2023-08-12T07:34:20;6.90;;;2.67;;
71413;SDS011;59226;53.212;5.728;2023-08-12T07:36:45;4.80;;;2.10;;
71413;SDS011;59226;53.212;5.728;2023-08-12T07:39:11;8.17;;;2.57;;
71413;SDS011;59226;53.212;5.728;2023-08-12T07:41:36;4.57;;;2.07;;
71413;SDS011;59226;53.212;5.728;2023-08-12T07:44:02;8.18;;;2.92;;
71413;SDS011;59226;53.212;5.728;2023-08-12T07:46:28;5.77;;;2.37;;
71413;SDS011;59226;53.212;5.728;2023-08-12T07:48:54;8.20;;;2.20;;
71413;SDS011;59226;53.212;5.728;2023-08-12T07:51:20;5.60;;;2.03;;
71413;SDS011;59226;53.212;5.728;2023-08-12T07:53:45;7.57;;;2.83;;
71413;SDS011;59226;53.212;5.728;2023-08-12T07:56:10;6.87;;;3.00;;
71413;SDS011;59226;53.212;5.728;2023-08-12T07:58:35;7.93;;;2.50;;
71413;SDS011;59226;53.212;5.728;2023-08-12T08:01:01;4.73;;;1.77;;
71413;SDS011;59226;53.212;5.728;2023-08-12T08:03:26;7.70;;;2.90;;
71413;SDS011;59226;53.212;5.728;2023-08-12T08:05:51;10.00;;;2.50;;
71413;SDS011;59226;53.212;5.728;2023-08-12T08:08:18;8.07;;;2.93;;
71413;SDS011;59226;53.212;5.728;2023-08-12T08:10:45;5.43;;;2.33;;
71413;SDS011;59226;53.212;5.728;2023-08-12T08:13:10;4.90;;;1.37;;
71413;SDS011;59226;53.212;5.728;2023-08-12T08:15:35;4.37;;;2.03;;
71413;SDS011;59226;53.212;5.728;2023-08-12T08:18:00;4.33;;;1.93;;
71413;SDS011;59226;53.212;5.728;2023-08-12T08:20:28;5.20;;;2.50;;
71413;SDS011;59226;53.212;5.728;2023-08-12T08:22:53;8.13;;;2.90;;
71413;SDS011;59226;53.212;5.728;2023-08-12T08:25:20;6.07;;;2.80;;
71413;SDS011;59226;53.212;5.728;2023-08-12T08:27:45;7.70;;;2.17;;
71413;SDS011;59226;53.212;5.728;2023-08-12T08:30:10;8.17;;;3.00;;
71413;SDS011;59226;53.212;5.728;2023-08-12T08:32:36;5.40;;;2.13;;
71413;SDS011;59226;53.212;5.728;2023-08-12T08:35:01;8.60;;;2.30;;
71413;SDS011;59226;53.212;5.728;2023-08-12T08:37:26;8.60;;;2.57;;
71413;SDS011;59226;53.212;5.728;2023-08-12T08:39:51;8.00;;;2.80;;
71413;SDS011;59226;53.212;5.728;2023-08-12T08:42:16;4.87;;;2.00;;
71413;SDS011;59226;53.212;5.728;2023-08-12T08:44:45;6.20;;;2.47;;
71413;SDS011;59226;53.212;5.728;2023-08-12T08:47:10;9.63;;;3.77;;
71413;SDS011;59226;53.212;5.728;2023-08-12T08:49:37;8.40;;;2.17;;
71413;SDS011;59226;53.212;5.728;2023-08-12T08:52:03;7.30;;;2.47;;
71413;SDS011;59226;53.212;5.728;2023-08-12T08:54:28;5.17;;;2.07;;
71413;SDS011;59226;53.212;5.728;2023-08-12T08:56:54;6.23;;;3.23;;
71413;SDS011;59226;53.212;5.728;2023-08-12T08:59:19;5.30;;;2.70;;
71413;SDS011;59226;53.212;5.728;2023-08-12T09:01:46;8.68;;;3.05;;
71413;SDS011;59226;53.212;5.728;2023-08-12T09:04:12;8.02;;;2.53;;
71413;SDS011;59226;53.212;5.728;2023-08-12T09:06:38;5.67;;;2.70;;
71413;SDS011;59226;53.212;5.728;2023-08-12T09:09:04;6.63;;;2.55;;
71413;SDS011;59226;53.212;5.728;2023-08-12T09:11:31;6.65;;;2.85;;
71413;SDS011;59226;53.212;5.728;2023-08-12T09:13:58;7.10;;;3.17;;
71413;SDS011;59226;53.212;5.728;2023-08-12T09:16:23;8.73;;;3.67;;
71413;SDS011;59226;53.212;5.728;2023-08-12T09:18:49;7.10;;;2.87;;
71413;SDS011;59226;53.212;5.728;2023-08-12T09:21:18;10.48;;;4.07;;
71413;SDS011;59226;53.212;5.728;2023-08-12T09:23:44;8.23;;;3.80;;
71413;SDS011;59226;53.212;5.728;2023-08-12T09:26:13;7.93;;;3.40;;
71413;SDS011;59226;53.212;5.728;2023-08-12T09:28:39;8.20;;;3.03;;
71413;SDS011;59226;53.212;5.728;2023-08-12T09:31:04;5.17;;;1.97;;
71413;SDS011;59226;53.212;5.728;2023-08-12T09:33:29;4.77;;;1.47;;
71413;SDS011;59226;53.212;5.728;2023-08-12T09:35:55;2.47;;;1.20;;
71413;SDS011;59226;53.212;5.728;2023-08-12T09:38:23;3.78;;;1.60;;
71413;SDS011;59226;53.212;5.728;2023-08-12T09:40:49;4.50;;;1.70;;
71413;SDS011;59226;53.212;5.728;2023-08-12T09:43:17;5.45;;;1.35;;
71413;SDS011;59226;53.212;5.728;2023-08-12T09:45:43;2.20;;;1.10;;
71413;SDS011;59226;53.212;5.728;2023-08-12T09:48:09;7.10;;;0.93;;
71413;SDS011;59226;53.212;5.728;2023-08-12T09:50:34;3.37;;;0.97;;
71413;SDS011;59226;53.212;5.728;2023-08-12T09:53:01;1.27;;;0.73;;
71413;SDS011;59226;53.212;5.728;2023-08-12T09:55:29;0.97;;;0.53;;
71413;SDS011;59226;53.212;5.728;2023-08-12T09:57:56;3.70;;;1.25;;
71413;SDS011;59226;53.212;5.728;2023-08-12T10:00:23;6.60;;;1.25;;
71413;SDS011;59226;53.212;5.728;2023-08-12T10:02:50;1.98;;;0.60;;
71413;SDS011;59226;53.212;5.728;2023-08-12T10:05:24;1.67;;;0.60;;
71413;SDS011;59226;53.212;5.728;2023-08-12T10:07:51;1.33;;;0.60;;
71413;SDS011;59226;53.212;5.728;2023-08-12T10:10:17;2.85;;;0.70;;
71413;SDS011;59226;53.212;5.728;2023-08-12T10:12:43;0.87;;;0.50;;
71413;SDS011;59226;53.212;5.728;2023-08-12T10:15:09;3.13;;;0.82;;
71413;SDS011;59226;53.212;5.728;2023-08-12T10:17:34;1.55;;;0.63;;
71413;SDS011;59226;53.212;5.728;2023-08-12T10:20:00;0.93;;;0.33;;
71413;SDS011;59226;53.212;5.728;2023-08-12T10:22:27;2.15;;;0.70;;
71413;SDS011;59226;53.212;5.728;2023-08-12T10:24:54;0.55;;;0.28;;
71413;SDS011;59226;53.212;5.728;2023-08-12T10:27:19;1.40;;;0.50;;
71413;SDS011;59226;53.212;5.728;2023-08-12T10:29:45;1.35;;;0.65;;
71413;SDS011;59226;53.212;5.728;2023-08-12T10:32:11;1.37;;;0.60;;
71413;SDS011;59226;53.212;5.728;2023-08-12T10:34:36;1.13;;;0.50;;
71413;SDS011;59226;53.212;5.728;2023-08-12T10:37:02;2.28;;;0.80;;
71413;SDS011;59226;53.212;5.728;2023-08-12T10:39:28;2.10;;;0.40;;
71413;SDS011;59226;53.212;5.728;2023-08-12T10:41:56;1.98;;;0.80;;
71413;SDS011;59226;53.212;5.728;2023-08-12T10:44:24;2.07;;;0.40;;
71413;SDS011;59226;53.212;5.728;2023-08-12T10:46:51;2.72;;;0.73;;
71413;SDS011;59226;53.212;5.728;2023-08-12T10:49:18;2.65;;;0.70;;
71413;SDS011;59226;53.212;5.728;2023-08-12T10:51:44;1.38;;;0.60;;
71413;SDS011;59226;53.212;5.728;2023-08-12T10:54:13;0.67;;;0.53;;
71413;SDS011;59226;53.212;5.728;2023-08-12T10:57:03;1.42;;;0.52;;
71413;SDS011;59226;53.212;5.728;2023-08-12T11:04:43;2.67;;;0.82;;
71413;SDS011;59226;53.212;5.728;2023-08-12T11:07:14;1.30;;;0.40;;
71413;SDS011;59226;53.212;5.728;2023-08-12T11:09:40;0.57;;;0.40;;
71413;SDS011;59226;53.212;5.728;2023-08-12T11:12:05;1.87;;;0.77;;
71413;SDS011;59226;53.212;5.728;2023-08-12T11:14:30;1.93;;;0.77;;
71413;SDS011;59226;53.212;5.728;2023-08-12T11:16:56;0.57;;;0.50;;
71413;SDS011;59226;53.212;5.728;2023-08-12T11:19:21;0.97;;;0.47;;
71413;SDS011;59226;53.212;5.728;2023-08-12T11:21:46;0.30;;;0.30;;
71413;SDS011;59226;53.212;5.728;2023-08-12T11:24:12;1.37;;;0.50;;
71413;SDS011;59226;53.212;5.728;2023-08-12T11:26:37;1.70;;;0.77;;
71413;SDS011;59226;53.212;5.728;2023-08-12T11:29:08;2.60;;;0.73;;
71413;SDS011;59226;53.212;5.728;2023-08-12T11:31:33;1.10;;;0.73;;
71413;SDS011;59226;53.212;5.728;2023-08-12T11:33:59;0.40;;;0.30;;
71413;SDS011;59226;53.212;5.728;2023-08-12T11:36:24;2.83;;;0.57;;
71413;SDS011;59226;53.212;5.728;2023-08-12T11:38:49;2.17;;;0.60;;
71413;SDS011;59226;53.212;5.728;2023-08-12T11:41:17;1.10;;;0.50;;
71413;SDS011;59226;53.212;5.728;2023-08-12T11:43:42;1.90;;;0.88;;
71413;SDS011;59226;53.212;5.728;2023-08-12T11:46:07;4.07;;;1.13;;
71413;SDS011;59226;53.212;5.728;2023-08-12T11:48:32;3.43;;;0.50;;
71413;SDS011;59226;53.212;5.728;2023-08-12T11:50:58;7.50;;;0.90;;
71413;SDS011;59226;53.212;5.728;2023-08-12T11:53:23;3.90;;;0.70;;
71413;SDS011;59226;53.212;5.728;2023-08-12T11:55:48;1.23;;;0.67;;
71413;SDS011;59226;53.212;5.728;2023-08-12T11:58:14;1.53;;;0.63;;
71413;SDS011;59226;53.212;5.728;2023-08-12T12:00:43;6.57;;;1.45;;
71413;SDS011;59226;53.212;5.728;2023-08-12T12:03:09;7.60;;;0.83;;
71413;SDS011;59226;53.212;5.728;2023-08-12T12:05:34;2.60;;;1.03;;
71413;SDS011;59226;53.212;5.728;2023-08-12T12:07:59;3.83;;;0.87;;
71413;SDS011;59226;53.212;5.728;2023-08-12T12:10:26;2.58;;;0.73;;
71413;SDS011;59226;53.212;5.728;2023-08-12T12:12:53;4.70;;;1.55;;
71413;SDS011;59226;53.212;5.728;2023-08-12T12:15:19;6.83;;;1.20;;
71413;SDS011;59226;53.212;5.728;2023-08-12T12:17:48;1.13;;;0.50;;
71413;SDS011;59226;53.212;5.728;2023-08-12T12:20:13;5.03;;;0.80;;
71413;SDS011;59226;53.212;5.728;2023-08-12T12:22:40;8.20;;;1.17;;
71413;SDS011;59226;53.212;5.728;2023-08-12T12:25:08;2.03;;;1.07;;
71413;SDS011;59226;53.212;5.728;2023-08-12T12:27:34;4.38;;;1.38;;
71413;SDS011;59226;53.212;5.728;2023-08-12T12:30:00;2.57;;;0.77;;
71413;SDS011;59226;53.212;5.728;2023-08-12T12:32:25;6.45;;;1.40;;
71413;SDS011;59226;53.212;5.728;2023-08-12T12:34:50;8.90;;;1.20;;
71413;SDS011;59226;53.212;5.728;2023-08-12T12:37:17;3.20;;;0.95;;
71413;SDS011;59226;53.212;5.728;2023-08-12T12:39:42;2.57;;;1.23;;
71413;SDS011;59226;53.212;5.728;2023-08-12T12:42:07;5.27;;;0.97;;
71413;SDS011;59226;53.212;5.728;2023-08-12T12:44:33;2.80;;;0.70;;
71413;SDS011;59226;53.212;5.728;2023-08-12T12:46:58;1.77;;;0.60;;
71413;SDS011;59226;53.212;5.728;2023-08-12T12:49:23;3.40;;;1.00;;
71413;SDS011;59226;53.212;5.728;2023-08-12T12:51:48;6.07;;;1.60;;
71413;SDS011;59226;53.212;5.728;2023-08-12T12:54:14;1.63;;;0.90;;
71413;SDS011;59226;53.212;5.728;2023-08-12T12:56:39;5.03;;;1.17;;
71413;SDS011;59226;53.212;5.728;2023-08-12T12:59:04;2.80;;;0.70;;
71413;SDS011;59226;53.212;5.728;2023-08-12T13:01:30;3.50;;;0.70;;
71413;SDS011;59226;53.212;5.728;2023-08-12T13:03:55;1.63;;;0.60;;
71413;SDS011;59226;53.212;5.728;2023-08-12T13:06:20;6.13;;;0.93;;
71413;SDS011;59226;53.212;5.728;2023-08-12T13:08:45;1.13;;;0.47;;
71413;SDS011;59226;53.212;5.728;2023-08-12T13:11:11;4.50;;;1.13;;
71413;SDS011;59226;53.212;5.728;2023-08-12T13:13:36;1.90;;;1.33;;
71413;SDS011;59226;53.212;5.728;2023-08-12T13:16:01;4.07;;;1.10;;
71413;SDS011;59226;53.212;5.728;2023-08-12T13:18:27;2.50;;;1.15;;
71413;SDS011;59226;53.212;5.728;2023-08-12T13:20:52;11.43;;;0.70;;
71413;SDS011;59226;53.212;5.728;2023-08-12T13:23:17;0.73;;;0.33;;
71413;SDS011;59226;53.212;5.728;2023-08-12T13:25:43;3.23;;;1.20;;
71413;SDS011;59226;53.212;5.728;2023-08-12T13:28:08;3.57;;;0.70;;
71413;SDS011;59226;53.212;5.728;2023-08-12T13:30:33;4.20;;;0.90;;
71413;SDS011;59226;53.212;5.728;2023-08-12T13:32:58;3.43;;;1.23;;
71413;SDS011;59226;53.212;5.728;2023-08-12T13:35:24;1.77;;;0.70;;
71413;SDS011;59226;53.212;5.728;2023-08-12T13:37:49;13.07;;;1.83;;
71413;SDS011;59226;53.212;5.728;2023-08-12T13:40:16;1.85;;;0.70;;
71413;SDS011;59226;53.212;5.728;2023-08-12T13:42:41;2.00;;;0.77;;
71413;SDS011;59226;53.212;5.728;2023-08-12T13:45:07;5.78;;;1.17;;
71413;SDS011;59226;53.212;5.728;2023-08-12T13:47:33;0.47;;;0.40;;
71413;SDS011;59226;53.212;5.728;2023-08-12T13:49:59;3.60;;;0.75;;
71413;SDS011;59226;53.212;5.728;2023-08-12T13:52:24;6.80;;;0.90;;
71413;SDS011;59226;53.212;5.728;2023-08-12T13:54:49;2.97;;;0.60;;
71413;SDS011;59226;53.212;5.728;2023-08-12T13:57:14;1.50;;;0.63;;
71413;SDS011;59226;53.212;5.728;2023-08-12T13:59:39;1.33;;;0.60;;
71413;SDS011;59226;53.212;5.728;2023-08-12T14:02:08;6.47;;;1.35;;
71413;SDS011;59226;53.212;5.728;2023-08-12T14:04:33;7.33;;;1.03;;
71413;SDS011;59226;53.212;5.728;2023-08-12T14:06:59;2.47;;;0.63;;
71413;SDS011;59226;53.212;5.728;2023-08-12T14:09:24;4.77;;;1.20;;
71413;SDS011;59226;53.212;5.728;2023-08-12T14:11:49;2.83;;;0.90;;
71413;SDS011;59226;53.212;5.728;2023-08-12T14:14:14;4.03;;;0.93;;
71413;SDS011;59226;53.212;5.728;2023-08-12T14:16:40;0.80;;;0.53;;
71413;SDS011;59226;53.212;5.728;2023-08-12T14:19:05;1.03;;;0.70;;
71413;SDS011;59226;53.212;5.728;2023-08-12T14:21:30;2.80;;;0.80;;
71413;SDS011;59226;53.212;5.728;2023-08-12T14:23:55;3.23;;;0.67;;
71413;SDS011;59226;53.212;5.728;2023-08-12T14:26:20;2.30;;;0.97;;
71413;SDS011;59226;53.212;5.728;2023-08-12T14:28:46;3.90;;;0.70;;
71413;SDS011;59226;53.212;5.728;2023-08-12T14:31:11;2.23;;;0.77;;
71413;SDS011;59226;53.212;5.728;2023-08-12T14:33:36;2.23;;;1.00;;
71413;SDS011;59226;53.212;5.728;2023-08-12T14:36:02;1.67;;;0.70;;
71413;SDS011;59226;53.212;5.728;2023-08-12T14:38:27;3.17;;;0.90;;
71413;SDS011;59226;53.212;5.728;2023-08-12T14:40:52;2.97;;;0.60;;
71413;SDS011;59226;53.212;5.728;2023-08-12T14:43:18;6.30;;;0.50;;
71413;SDS011;59226;53.212;5.728;2023-08-12T14:45:46;1.47;;;0.70;;
71413;SDS011;59226;53.212;5.728;2023-08-12T14:48:11;3.70;;;0.95;;